sensor_id;sensor_type;location;lat;lon;timestamp;P1;durP1;ratioP1;P2;durP2;ratioP2
45684;SDS011;46836;48.388;16.210;2023-09-12T00:00:49;14.67;;;12.43;;
45684;SDS011;46836;48.388;16.210;2023-09-12T00:03:19;13.40;;;12.20;;
45684;SDS011;46836;48.388;16.210;2023-09-12T00:05:55;14.50;;;12.00;;
45684;SDS011;46836;48.388;16.210;2023-09-12T00:08:23;12.57;;;11.47;;
45684;SDS011;46836;48.388;16.210;2023-09-12T00:11:04;17.53;;;11.80;;
45684;SDS011;46836;48.388;16.210;2023-09-12T00:13:37;13.20;;;11.90;;
45684;SDS011;46836;48.388;16.210;2023-09-12T00:16:05;13.03;;;11.63;;
45684;SDS011;46836;48.388;16.210;2023-09-12T00:18:32;14.00;;;12.50;;
45684;SDS011;46836;48.388;16.210;2023-09-12T00:21:01;13.87;;;12.63;;
45684;SDS011;46836;48.388;16.210;2023-09-12T00:23:29;14.17;;;12.10;;
45684;SDS011;46836;48.388;16.210;2023-09-12T00:25:57;13.40;;;12.00;;
45684;SDS011;46836;48.388;16.210;2023-09-12T00:28:24;14.10;;;12.60;;
45684;SDS011;46836;48.388;16.210;2023-09-12T00:30:52;16.33;;;12.03;;
45684;SDS011;46836;48.388;16.210;2023-09-12T00:33:19;13.43;;;12.23;;
45684;SDS011;46836;48.388;16.210;2023-09-12T00:35:46;12.87;;;11.77;;
45684;SDS011;46836;48.388;16.210;2023-09-12T00:38:13;14.47;;;13.17;;
45684;SDS011;46836;48.388;16.210;2023-09-12T00:40:40;14.07;;;12.83;;
45684;SDS011;46836;48.388;16.210;2023-09-12T00:43:07;13.40;;;12.17;;
45684;SDS011;46836;48.388;16.210;2023-09-12T00:45:34;14.17;;;12.87;;
45684;SDS011;46836;48.388;16.210;2023-09-12T00:48:02;13.57;;;12.33;;
45684;SDS011;46836;48.388;16.210;2023-09-12T00:50:31;15.13;;;12.60;;
45684;SDS011;46836;48.388;16.210;2023-09-12T00:52:59;14.87;;;13.37;;
45684;SDS011;46836;48.388;16.210;2023-09-12T00:55:28;13.13;;;11.73;;
45684;SDS011;46836;48.388;16.210;2023-09-12T00:57:57;14.20;;;12.90;;
45684;SDS011;46836;48.388;16.210;2023-09-12T01:00:25;14.87;;;13.30;;
45684;SDS011;46836;48.388;16.210;2023-09-12T01:02:52;14.03;;;12.63;;
45684;SDS011;46836;48.388;16.210;2023-09-12T01:05:20;15.03;;;13.73;;
45684;SDS011;46836;48.388;16.210;2023-09-12T01:07:48;14.27;;;12.87;;
45684;SDS011;46836;48.388;16.210;2023-09-12T01:10:16;16.20;;;13.70;;
45684;SDS011;46836;48.388;16.210;2023-09-12T01:12:43;14.63;;;13.27;;
45684;SDS011;46836;48.388;16.210;2023-09-12T01:15:11;14.40;;;13.00;;
45684;SDS011;46836;48.388;16.210;2023-09-12T01:17:44;15.80;;;14.13;;
45684;SDS011;46836;48.388;16.210;2023-09-12T01:20:16;15.47;;;14.00;;
45684;SDS011;46836;48.388;16.210;2023-09-12T01:28:09;13.83;;;12.63;;
45684;SDS011;46836;48.388;16.210;2023-09-12T01:30:36;15.47;;;13.93;;
45684;SDS011;46836;48.388;16.210;2023-09-12T01:33:08;17.63;;;14.83;;
45684;SDS011;46836;48.388;16.210;2023-09-12T01:35:35;15.40;;;13.80;;
45684;SDS011;46836;48.388;16.210;2023-09-12T01:38:03;15.30;;;13.80;;
45684;SDS011;46836;48.388;16.210;2023-09-12T01:41:03;15.40;;;13.63;;
45684;SDS011;46836;48.388;16.210;2023-09-12T01:43:24;20.93;;;13.87;;
45684;SDS011;46836;48.388;16.210;2023-09-12T01:45:54;15.57;;;14.07;;
45684;SDS011;46836;48.388;16.210;2023-09-12T01:48:24;15.77;;;14.27;;
45684;SDS011;46836;48.388;16.210;2023-09-12T01:50:56;15.73;;;14.07;;
45684;SDS011;46836;48.388;16.210;2023-09-12T01:53:24;15.23;;;13.87;;
45684;SDS011;46836;48.388;16.210;2023-09-12T01:55:52;15.50;;;13.90;;
45684;SDS011;46836;48.388;16.210;2023-09-12T01:58:20;14.70;;;13.43;;
45684;SDS011;46836;48.388;16.210;2023-09-12T02:00:48;16.67;;;15.03;;
45684;SDS011;46836;48.388;16.210;2023-09-12T02:03:15;16.10;;;14.70;;
45684;SDS011;46836;48.388;16.210;2023-09-12T02:05:42;15.80;;;14.40;;
45684;SDS011;46836;48.388;16.210;2023-09-12T02:08:10;15.17;;;13.87;;
45684;SDS011;46836;48.388;16.210;2023-09-12T02:10:37;16.17;;;14.40;;
45684;SDS011;46836;48.388;16.210;2023-09-12T02:13:04;16.13;;;14.50;;
45684;SDS011;46836;48.388;16.210;2023-09-12T02:15:31;16.37;;;14.67;;
45684;SDS011;46836;48.388;16.210;2023-09-12T02:17:59;16.20;;;14.70;;
45684;SDS011;46836;48.388;16.210;2023-09-12T02:20:26;17.23;;;15.07;;
45684;SDS011;46836;48.388;16.210;2023-09-12T02:22:53;18.73;;;14.43;;
45684;SDS011;46836;48.388;16.210;2023-09-12T02:25:20;16.87;;;14.53;;
45684;SDS011;46836;48.388;16.210;2023-09-12T02:27:47;17.77;;;15.43;;
45684;SDS011;46836;48.388;16.210;2023-09-12T02:30:14;15.73;;;14.23;;
45684;SDS011;46836;48.388;16.210;2023-09-12T02:32:42;16.80;;;15.20;;
45684;SDS011;46836;48.388;16.210;2023-09-12T02:35:09;18.60;;;15.60;;
45684;SDS011;46836;48.388;16.210;2023-09-12T02:37:36;16.30;;;14.63;;
45684;SDS011;46836;48.388;16.210;2023-09-12T02:40:03;16.30;;;14.80;;
45684;SDS011;46836;48.388;16.210;2023-09-12T02:42:32;16.77;;;14.30;;
45684;SDS011;46836;48.388;16.210;2023-09-12T02:44:59;15.47;;;14.07;;
45684;SDS011;46836;48.388;16.210;2023-09-12T02:47:26;16.77;;;15.17;;
45684;SDS011;46836;48.388;16.210;2023-09-12T02:49:54;19.13;;;14.53;;
45684;SDS011;46836;48.388;16.210;2023-09-12T02:52:21;15.87;;;14.43;;
45684;SDS011;46836;48.388;16.210;2023-09-12T02:54:48;23.20;;;14.93;;
45684;SDS011;46836;48.388;16.210;2023-09-12T02:57:15;15.77;;;14.10;;
45684;SDS011;46836;48.388;16.210;2023-09-12T02:59:42;16.10;;;13.97;;
45684;SDS011;46836;48.388;16.210;2023-09-12T03:02:09;16.60;;;15.00;;
45684;SDS011;46836;48.388;16.210;2023-09-12T03:04:37;17.23;;;14.23;;
45684;SDS011;46836;48.388;16.210;2023-09-12T03:07:04;16.33;;;14.60;;
45684;SDS011;46836;48.388;16.210;2023-09-12T03:09:31;15.80;;;13.03;;
45684;SDS011;46836;48.388;16.210;2023-09-12T03:12:00;18.33;;;15.17;;
45684;SDS011;46836;48.388;16.210;2023-09-12T03:14:30;16.23;;;13.90;;
45684;SDS011;46836;48.388;16.210;2023-09-12T03:16:57;16.73;;;15.07;;
45684;SDS011;46836;48.388;16.210;2023-09-12T03:19:25;14.73;;;13.33;;
45684;SDS011;46836;48.388;16.210;2023-09-12T03:21:52;15.80;;;13.17;;
45684;SDS011;46836;48.388;16.210;2023-09-12T03:24:19;15.33;;;13.73;;
45684;SDS011;46836;48.388;16.210;2023-09-12T03:26:47;14.93;;;13.43;;
45684;SDS011;46836;48.388;16.210;2023-09-12T03:29:14;17.77;;;15.03;;
45684;SDS011;46836;48.388;16.210;2023-09-12T03:31:41;16.30;;;14.53;;
45684;SDS011;46836;48.388;16.210;2023-09-12T03:34:09;16.77;;;14.20;;
45684;SDS011;46836;48.388;16.210;2023-09-12T03:36:36;18.50;;;14.83;;
45684;SDS011;46836;48.388;16.210;2023-09-12T03:39:03;15.83;;;14.27;;
45684;SDS011;46836;48.388;16.210;2023-09-12T03:41:35;16.80;;;15.03;;
45684;SDS011;46836;48.388;16.210;2023-09-12T03:44:02;18.13;;;14.40;;
45684;SDS011;46836;48.388;16.210;2023-09-12T03:46:29;15.40;;;13.70;;
45684;SDS011;46836;48.388;16.210;2023-09-12T03:48:56;15.77;;;14.37;;
45684;SDS011;46836;48.388;16.210;2023-09-12T03:51:23;19.00;;;14.43;;
45684;SDS011;46836;48.388;16.210;2023-09-12T03:53:51;15.97;;;14.47;;
45684;SDS011;46836;48.388;16.210;2023-09-12T03:56:18;17.27;;;14.80;;
45684;SDS011;46836;48.388;16.210;2023-09-12T03:58:46;17.40;;;13.27;;
45684;SDS011;46836;48.388;16.210;2023-09-12T04:01:13;16.10;;;14.70;;
45684;SDS011;46836;48.388;16.210;2023-09-12T04:03:41;15.50;;;13.93;;
45684;SDS011;46836;48.388;16.210;2023-09-12T04:06:08;16.30;;;14.53;;
45684;SDS011;46836;48.388;16.210;2023-09-12T04:08:36;16.17;;;14.60;;
45684;SDS011;46836;48.388;16.210;2023-09-12T04:11:03;14.80;;;13.40;;
45684;SDS011;46836;48.388;16.210;2023-09-12T04:13:30;15.47;;;13.30;;
45684;SDS011;46836;48.388;16.210;2023-09-12T04:15:57;14.33;;;13.13;;
45684;SDS011;46836;48.388;16.210;2023-09-12T04:18:25;15.37;;;13.97;;
45684;SDS011;46836;48.388;16.210;2023-09-12T04:20:52;14.97;;;13.30;;
45684;SDS011;46836;48.388;16.210;2023-09-12T04:23:22;15.47;;;13.90;;
45684;SDS011;46836;48.388;16.210;2023-09-12T04:25:49;15.77;;;13.20;;
45684;SDS011;46836;48.388;16.210;2023-09-12T04:28:16;16.33;;;14.73;;
45684;SDS011;46836;48.388;16.210;2023-09-12T04:30:43;15.83;;;14.13;;
45684;SDS011;46836;48.388;16.210;2023-09-12T04:33:12;15.60;;;14.20;;
45684;SDS011;46836;48.388;16.210;2023-09-12T04:35:39;16.63;;;15.03;;
45684;SDS011;46836;48.388;16.210;2023-09-12T04:38:06;16.17;;;14.63;;
45684;SDS011;46836;48.388;16.210;2023-09-12T04:40:33;16.40;;;14.70;;
45684;SDS011;46836;48.388;16.210;2023-09-12T04:43:00;15.73;;;14.20;;
45684;SDS011;46836;48.388;16.210;2023-09-12T04:45:27;18.77;;;14.90;;
45684;SDS011;46836;48.388;16.210;2023-09-12T04:47:55;18.13;;;16.40;;
45684;SDS011;46836;48.388;16.210;2023-09-12T04:50:22;15.83;;;14.40;;
45684;SDS011;46836;48.388;16.210;2023-09-12T04:52:49;17.10;;;15.50;;
45684;SDS011;46836;48.388;16.210;2023-09-12T04:55:16;16.07;;;14.50;;
45684;SDS011;46836;48.388;16.210;2023-09-12T04:57:43;17.17;;;14.53;;
45684;SDS011;46836;48.388;16.210;2023-09-12T05:00:10;14.83;;;13.37;;
45684;SDS011;46836;48.388;16.210;2023-09-12T05:02:38;15.40;;;13.90;;
45684;SDS011;46836;48.388;16.210;2023-09-12T05:05:05;15.67;;;14.07;;
45684;SDS011;46836;48.388;16.210;2023-09-12T05:07:33;15.33;;;13.93;;
45684;SDS011;46836;48.388;16.210;2023-09-12T05:10:00;14.70;;;13.30;;
45684;SDS011;46836;48.388;16.210;2023-09-12T05:12:27;15.50;;;14.00;;
45684;SDS011;46836;48.388;16.210;2023-09-12T05:14:54;18.63;;;15.00;;
45684;SDS011;46836;48.388;16.210;2023-09-12T05:17:21;16.27;;;13.70;;
45684;SDS011;46836;48.388;16.210;2023-09-12T05:19:48;14.83;;;13.43;;
45684;SDS011;46836;48.388;16.210;2023-09-12T05:22:15;15.37;;;14.00;;
45684;SDS011;46836;48.388;16.210;2023-09-12T05:24:43;16.63;;;15.00;;
45684;SDS011;46836;48.388;16.210;2023-09-12T05:27:10;16.47;;;14.97;;
45684;SDS011;46836;48.388;16.210;2023-09-12T05:29:38;16.20;;;14.70;;
45684;SDS011;46836;48.388;16.210;2023-09-12T05:32:05;16.27;;;14.63;;
45684;SDS011;46836;48.388;16.210;2023-09-12T05:34:32;17.60;;;15.70;;
45684;SDS011;46836;48.388;16.210;2023-09-12T05:36:59;17.23;;;15.53;;
45684;SDS011;46836;48.388;16.210;2023-09-12T05:39:26;16.43;;;14.33;;
45684;SDS011;46836;48.388;16.210;2023-09-12T05:41:54;15.70;;;14.20;;
45684;SDS011;46836;48.388;16.210;2023-09-12T05:44:21;16.33;;;14.93;;
45684;SDS011;46836;48.388;16.210;2023-09-12T05:46:48;20.60;;;16.67;;
45684;SDS011;46836;48.388;16.210;2023-09-12T05:49:15;17.13;;;15.50;;
45684;SDS011;46836;48.388;16.210;2023-09-12T05:51:42;19.20;;;16.17;;
45684;SDS011;46836;48.388;16.210;2023-09-12T05:54:09;20.33;;;16.87;;
45684;SDS011;46836;48.388;16.210;2023-09-12T05:56:37;21.03;;;16.40;;
45684;SDS011;46836;48.388;16.210;2023-09-12T05:59:05;21.90;;;17.33;;
45684;SDS011;46836;48.388;16.210;2023-09-12T06:01:32;20.50;;;18.33;;
45684;SDS011;46836;48.388;16.210;2023-09-12T06:04:00;21.13;;;18.93;;
45684;SDS011;46836;48.388;16.210;2023-09-12T06:06:27;22.73;;;20.50;;
45684;SDS011;46836;48.388;16.210;2023-09-12T06:08:54;21.80;;;19.70;;
45684;SDS011;46836;48.388;16.210;2023-09-12T06:11:22;21.73;;;19.50;;
45684;SDS011;46836;48.388;16.210;2023-09-12T06:13:49;21.20;;;19.10;;
45684;SDS011;46836;48.388;16.210;2023-09-12T06:16:16;21.30;;;19.27;;
45684;SDS011;46836;48.388;16.210;2023-09-12T06:18:43;21.53;;;18.30;;
45684;SDS011;46836;48.388;16.210;2023-09-12T06:21:11;20.70;;;18.70;;
45684;SDS011;46836;48.388;16.210;2023-09-12T06:23:38;20.33;;;18.27;;
45684;SDS011;46836;48.388;16.210;2023-09-12T06:26:05;19.90;;;17.80;;
45684;SDS011;46836;48.388;16.210;2023-09-12T06:28:32;18.77;;;17.03;;
45684;SDS011;46836;48.388;16.210;2023-09-12T06:30:59;19.93;;;17.67;;
45684;SDS011;46836;48.388;16.210;2023-09-12T06:33:27;19.80;;;16.90;;
45684;SDS011;46836;48.388;16.210;2023-09-12T06:35:55;20.60;;;18.57;;
45684;SDS011;46836;48.388;16.210;2023-09-12T06:38:22;20.30;;;18.33;;
45684;SDS011;46836;48.388;16.210;2023-09-12T06:40:50;21.23;;;19.20;;
45684;SDS011;46836;48.388;16.210;2023-09-12T06:43:18;22.23;;;18.40;;
45684;SDS011;46836;48.388;16.210;2023-09-12T06:45:45;22.63;;;20.23;;
45684;SDS011;46836;48.388;16.210;2023-09-12T06:48:12;22.60;;;20.27;;
45684;SDS011;46836;48.388;16.210;2023-09-12T06:50:40;21.60;;;19.50;;
45684;SDS011;46836;48.388;16.210;2023-09-12T06:53:08;22.70;;;20.60;;
45684;SDS011;46836;48.388;16.210;2023-09-12T06:55:36;21.03;;;19.10;;
45684;SDS011;46836;48.388;16.210;2023-09-12T06:58:03;28.53;;;24.90;;
45684;SDS011;46836;48.388;16.210;2023-09-12T07:00:31;25.20;;;22.80;;
45684;SDS011;46836;48.388;16.210;2023-09-12T07:02:58;24.73;;;22.33;;
45684;SDS011;46836;48.388;16.210;2023-09-12T07:05:25;23.43;;;20.77;;
45684;SDS011;46836;48.388;16.210;2023-09-12T07:07:52;25.80;;;23.40;;
45684;SDS011;46836;48.388;16.210;2023-09-12T07:10:19;20.80;;;18.90;;
45684;SDS011;46836;48.388;16.210;2023-09-12T07:12:52;19.97;;;18.20;;
45684;SDS011;46836;48.388;16.210;2023-09-12T07:15:19;26.97;;;24.17;;
45684;SDS011;46836;48.388;16.210;2023-09-12T07:17:47;29.37;;;22.37;;
45684;SDS011;46836;48.388;16.210;2023-09-12T07:20:14;22.10;;;19.67;;
45684;SDS011;46836;48.388;16.210;2023-09-12T07:22:44;24.00;;;21.60;;
45684;SDS011;46836;48.388;16.210;2023-09-12T07:25:11;23.10;;;19.73;;
45684;SDS011;46836;48.388;16.210;2023-09-12T07:27:42;21.67;;;19.40;;
45684;SDS011;46836;48.388;16.210;2023-09-12T07:30:09;21.87;;;19.80;;
45684;SDS011;46836;48.388;16.210;2023-09-12T07:32:37;20.10;;;18.07;;
45684;SDS011;46836;48.388;16.210;2023-09-12T07:35:04;23.50;;;19.30;;
45684;SDS011;46836;48.388;16.210;2023-09-12T07:37:31;23.40;;;21.00;;
45684;SDS011;46836;48.388;16.210;2023-09-12T07:39:58;23.47;;;20.97;;
45684;SDS011;46836;48.388;16.210;2023-09-12T07:42:25;23.80;;;21.30;;
45684;SDS011;46836;48.388;16.210;2023-09-12T07:44:53;21.43;;;19.37;;
45684;SDS011;46836;48.388;16.210;2023-09-12T07:47:20;20.73;;;18.77;;
45684;SDS011;46836;48.388;16.210;2023-09-12T07:49:52;23.60;;;21.40;;
45684;SDS011;46836;48.388;16.210;2023-09-12T07:52:20;24.33;;;22.03;;
45684;SDS011;46836;48.388;16.210;2023-09-12T07:54:51;23.77;;;20.83;;
45684;SDS011;46836;48.388;16.210;2023-09-12T07:57:23;22.53;;;20.23;;
45684;SDS011;46836;48.388;16.210;2023-09-12T07:59:50;20.30;;;17.60;;
45684;SDS011;46836;48.388;16.210;2023-09-12T08:02:18;18.57;;;16.97;;
45684;SDS011;46836;48.388;16.210;2023-09-12T08:04:45;21.23;;;19.43;;
45684;SDS011;46836;48.388;16.210;2023-09-12T08:07:12;20.30;;;18.57;;
45684;SDS011;46836;48.388;16.210;2023-09-12T08:09:49;19.90;;;17.90;;
45684;SDS011;46836;48.388;16.210;2023-09-12T08:12:19;22.30;;;20.17;;
45684;SDS011;46836;48.388;16.210;2023-09-12T08:14:47;22.67;;;20.37;;
45684;SDS011;46836;48.388;16.210;2023-09-12T08:17:15;16.93;;;15.23;;
45684;SDS011;46836;48.388;16.210;2023-09-12T08:19:42;16.77;;;15.37;;
45684;SDS011;46836;48.388;16.210;2023-09-12T08:22:10;21.50;;;19.40;;
45684;SDS011;46836;48.388;16.210;2023-09-12T08:24:38;21.50;;;19.60;;
45684;SDS011;46836;48.388;16.210;2023-09-12T08:27:06;17.90;;;16.17;;
45684;SDS011;46836;48.388;16.210;2023-09-12T08:29:33;20.00;;;18.30;;
45684;SDS011;46836;48.388;16.210;2023-09-12T08:32:01;19.57;;;17.63;;
45684;SDS011;46836;48.388;16.210;2023-09-12T08:34:29;19.27;;;16.50;;
45684;SDS011;46836;48.388;16.210;2023-09-12T08:36:56;20.33;;;18.40;;
45684;SDS011;46836;48.388;16.210;2023-09-12T08:39:25;17.70;;;15.93;;
45684;SDS011;46836;48.388;16.210;2023-09-12T08:41:53;17.77;;;16.17;;
45684;SDS011;46836;48.388;16.210;2023-09-12T08:44:21;16.80;;;15.13;;
45684;SDS011;46836;48.388;16.210;2023-09-12T08:46:48;18.57;;;16.77;;
45684;SDS011;46836;48.388;16.210;2023-09-12T08:49:16;29.73;;;17.40;;
45684;SDS011;46836;48.388;16.210;2023-09-12T08:51:43;37.03;;;19.57;;
45684;SDS011;46836;48.388;16.210;2023-09-12T08:54:11;17.13;;;15.53;;
45684;SDS011;46836;48.388;16.210;2023-09-12T08:56:39;18.27;;;16.37;;
45684;SDS011;46836;48.388;16.210;2023-09-12T08:59:09;23.40;;;16.10;;
45684;SDS011;46836;48.388;16.210;2023-09-12T09:01:38;29.00;;;17.73;;
45684;SDS011;46836;48.388;16.210;2023-09-12T09:04:06;16.03;;;14.53;;
45684;SDS011;46836;48.388;16.210;2023-09-12T09:06:33;17.20;;;15.63;;
45684;SDS011;46836;48.388;16.210;2023-09-12T09:09:05;16.27;;;14.93;;
45684;SDS011;46836;48.388;16.210;2023-09-12T09:11:33;22.83;;;16.40;;
45684;SDS011;46836;48.388;16.210;2023-09-12T09:14:03;17.43;;;15.83;;
45684;SDS011;46836;48.388;16.210;2023-09-12T09:16:31;16.50;;;15.07;;
45684;SDS011;46836;48.388;16.210;2023-09-12T09:18:59;17.60;;;14.00;;
45684;SDS011;46836;48.388;16.210;2023-09-12T09:21:31;15.97;;;14.60;;
45684;SDS011;46836;48.388;16.210;2023-09-12T09:24:00;16.67;;;15.17;;
45684;SDS011;46836;48.388;16.210;2023-09-12T09:26:41;16.13;;;14.70;;
45684;SDS011;46836;48.388;16.210;2023-09-12T09:29:19;15.63;;;14.33;;
45684;SDS011;46836;48.388;16.210;2023-09-12T09:31:47;17.07;;;14.13;;
45684;SDS011;46836;48.388;16.210;2023-09-12T09:34:17;15.70;;;14.40;;
45684;SDS011;46836;48.388;16.210;2023-09-12T09:36:50;16.43;;;14.53;;
45684;SDS011;46836;48.388;16.210;2023-09-12T09:39:20;16.93;;;15.20;;
45684;SDS011;46836;48.388;16.210;2023-09-12T09:41:52;16.67;;;14.77;;
45684;SDS011;46836;48.388;16.210;2023-09-12T09:44:21;17.90;;;14.67;;
45684;SDS011;46836;48.388;16.210;2023-09-12T09:46:58;17.07;;;15.30;;
45684;SDS011;46836;48.388;16.210;2023-09-12T09:49:32;16.63;;;14.93;;
45684;SDS011;46836;48.388;16.210;2023-09-12T09:52:02;18.80;;;14.80;;
45684;SDS011;46836;48.388;16.210;2023-09-12T09:54:31;16.07;;;14.40;;
45684;SDS011;46836;48.388;16.210;2023-09-12T09:56:59;20.17;;;15.43;;
45684;SDS011;46836;48.388;16.210;2023-09-12T09:59:26;16.13;;;14.60;;
45684;SDS011;46836;48.388;16.210;2023-09-12T10:01:57;21.23;;;14.77;;
45684;SDS011;46836;48.388;16.210;2023-09-12T10:04:26;16.20;;;14.67;;
45684;SDS011;46836;48.388;16.210;2023-09-12T10:06:55;16.27;;;14.60;;
45684;SDS011;46836;48.388;16.210;2023-09-12T10:09:27;20.17;;;14.80;;
45684;SDS011;46836;48.388;16.210;2023-09-12T10:11:55;16.90;;;15.20;;
45684;SDS011;46836;48.388;16.210;2023-09-12T10:14:24;17.10;;;15.40;;
45684;SDS011;46836;48.388;16.210;2023-09-12T10:16:57;17.93;;;16.10;;
45684;SDS011;46836;48.388;16.210;2023-09-12T10:19:35;16.10;;;14.70;;
45684;SDS011;46836;48.388;16.210;2023-09-12T10:24:45;18.63;;;14.07;;
45684;SDS011;46836;48.388;16.210;2023-09-12T10:27:15;16.17;;;14.70;;
45684;SDS011;46836;48.388;16.210;2023-09-12T10:29:45;16.07;;;14.47;;
45684;SDS011;46836;48.388;16.210;2023-09-12T10:32:14;15.40;;;13.90;;
45684;SDS011;46836;48.388;16.210;2023-09-12T10:34:43;14.90;;;13.60;;
45684;SDS011;46836;48.388;16.210;2023-09-12T10:37:16;16.23;;;13.83;;
45684;SDS011;46836;48.388;16.210;2023-09-12T10:39:46;14.90;;;13.30;;
45684;SDS011;46836;48.388;16.210;2023-09-12T10:42:16;15.47;;;13.97;;
45684;SDS011;46836;48.388;16.210;2023-09-12T10:44:44;15.07;;;13.57;;
45684;SDS011;46836;48.388;16.210;2023-09-12T10:47:13;14.63;;;13.20;;
45684;SDS011;46836;48.388;16.210;2023-09-12T10:49:43;15.60;;;13.80;;
45684;SDS011;46836;48.388;16.210;2023-09-12T10:52:11;14.47;;;13.17;;
45684;SDS011;46836;48.388;16.210;2023-09-12T10:54:52;14.30;;;13.00;;
45684;SDS011;46836;48.388;16.210;2023-09-12T10:57:19;15.93;;;12.83;;
45684;SDS011;46836;48.388;16.210;2023-09-12T11:02:27;14.70;;;13.20;;
45684;SDS011;46836;48.388;16.210;2023-09-12T11:04:56;14.53;;;13.30;;
45684;SDS011;46836;48.388;16.210;2023-09-12T11:12:49;14.67;;;13.40;;
45684;SDS011;46836;48.388;16.210;2023-09-12T11:15:22;15.10;;;12.23;;
45684;SDS011;46836;48.388;16.210;2023-09-12T11:18:02;14.07;;;12.53;;
45684;SDS011;46836;48.388;16.210;2023-09-12T11:20:52;13.63;;;12.53;;
45684;SDS011;46836;48.388;16.210;2023-09-12T11:23:26;13.23;;;11.77;;
45684;SDS011;46836;48.388;16.210;2023-09-12T11:26:06;13.40;;;12.10;;
45684;SDS011;46836;48.388;16.210;2023-09-12T11:28:34;15.93;;;12.97;;
45684;SDS011;46836;48.388;16.210;2023-09-12T11:31:01;14.13;;;12.37;;
45684;SDS011;46836;48.388;16.210;2023-09-12T11:33:28;17.10;;;11.90;;
45684;SDS011;46836;48.388;16.210;2023-09-12T11:35:57;13.37;;;11.33;;
45684;SDS011;46836;48.388;16.210;2023-09-12T11:38:27;16.67;;;12.70;;
45684;SDS011;46836;48.388;16.210;2023-09-12T11:40:56;15.67;;;11.53;;
45684;SDS011;46836;48.388;16.210;2023-09-12T11:43:25;13.93;;;11.60;;
45684;SDS011;46836;48.388;16.210;2023-09-12T11:45:54;13.87;;;11.77;;
45684;SDS011;46836;48.388;16.210;2023-09-12T11:48:23;14.53;;;13.10;;
45684;SDS011;46836;48.388;16.210;2023-09-12T11:50:54;23.87;;;13.13;;
45684;SDS011;46836;48.388;16.210;2023-09-12T11:53:23;16.23;;;13.33;;
45684;SDS011;46836;48.388;16.210;2023-09-12T11:55:54;18.13;;;12.30;;
45684;SDS011;46836;48.388;16.210;2023-09-12T11:58:24;15.50;;;13.20;;
45684;SDS011;46836;48.388;16.210;2023-09-12T12:00:54;13.93;;;12.63;;
45684;SDS011;46836;48.388;16.210;2023-09-12T12:03:24;14.40;;;13.10;;
45684;SDS011;46836;48.388;16.210;2023-09-12T12:05:56;13.70;;;12.50;;
45684;SDS011;46836;48.388;16.210;2023-09-12T12:08:24;18.50;;;13.80;;
45684;SDS011;46836;48.388;16.210;2023-09-12T12:10:58;15.17;;;13.13;;
45684;SDS011;46836;48.388;16.210;2023-09-12T12:13:26;14.27;;;12.77;;
45684;SDS011;46836;48.388;16.210;2023-09-12T12:15:57;13.73;;;12.63;;
45684;SDS011;46836;48.388;16.210;2023-09-12T12:18:25;13.63;;;12.30;;
45684;SDS011;46836;48.388;16.210;2023-09-12T12:20:53;14.80;;;12.77;;
45684;SDS011;46836;48.388;16.210;2023-09-12T12:23:21;15.23;;;13.67;;
45684;SDS011;46836;48.388;16.210;2023-09-12T12:25:48;13.20;;;12.00;;
45684;SDS011;46836;48.388;16.210;2023-09-12T12:28:15;13.03;;;11.83;;
45684;SDS011;46836;48.388;16.210;2023-09-12T12:30:43;14.00;;;12.07;;
45684;SDS011;46836;48.388;16.210;2023-09-12T12:33:11;14.40;;;11.40;;
45684;SDS011;46836;48.388;16.210;2023-09-12T12:35:59;13.13;;;11.80;;
45684;SDS011;46836;48.388;16.210;2023-09-12T12:38:31;12.20;;;11.20;;
45684;SDS011;46836;48.388;16.210;2023-09-12T12:41:06;13.03;;;11.80;;
45684;SDS011;46836;48.388;16.210;2023-09-12T12:43:33;12.90;;;11.20;;
45684;SDS011;46836;48.388;16.210;2023-09-12T12:46:00;11.77;;;10.57;;
45684;SDS011;46836;48.388;16.210;2023-09-12T12:48:31;11.87;;;10.60;;
45684;SDS011;46836;48.388;16.210;2023-09-12T12:51:05;12.17;;;10.67;;
45684;SDS011;46836;48.388;16.210;2023-09-12T12:53:47;11.03;;;9.93;;
45684;SDS011;46836;48.388;16.210;2023-09-12T12:56:23;16.23;;;9.77;;
45684;SDS011;46836;48.388;16.210;2023-09-12T12:58:58;12.13;;;11.03;;
45684;SDS011;46836;48.388;16.210;2023-09-12T13:01:30;12.70;;;10.73;;
45684;SDS011;46836;48.388;16.210;2023-09-12T13:03:57;11.93;;;10.90;;
45684;SDS011;46836;48.388;16.210;2023-09-12T13:06:25;11.90;;;10.77;;
45684;SDS011;46836;48.388;16.210;2023-09-12T13:08:54;15.70;;;11.00;;
45684;SDS011;46836;48.388;16.210;2023-09-12T13:11:23;11.80;;;10.77;;
45684;SDS011;46836;48.388;16.210;2023-09-12T13:13:51;14.00;;;10.73;;
45684;SDS011;46836;48.388;16.210;2023-09-12T13:16:19;11.83;;;10.70;;
45684;SDS011;46836;48.388;16.210;2023-09-12T13:18:46;11.10;;;10.07;;
45684;SDS011;46836;48.388;16.210;2023-09-12T13:21:13;12.10;;;10.60;;
45684;SDS011;46836;48.388;16.210;2023-09-12T13:23:40;10.47;;;9.10;;
45684;SDS011;46836;48.388;16.210;2023-09-12T13:26:08;16.10;;;10.33;;
45684;SDS011;46836;48.388;16.210;2023-09-12T13:28:36;11.97;;;10.73;;
45684;SDS011;46836;48.388;16.210;2023-09-12T13:31:04;13.80;;;10.87;;
45684;SDS011;46836;48.388;16.210;2023-09-12T13:33:31;12.30;;;9.43;;
45684;SDS011;46836;48.388;16.210;2023-09-12T13:35:58;11.17;;;10.17;;
45684;SDS011;46836;48.388;16.210;2023-09-12T13:38:25;13.60;;;11.40;;
45684;SDS011;46836;48.388;16.210;2023-09-12T13:40:53;12.03;;;10.70;;
45684;SDS011;46836;48.388;16.210;2023-09-12T13:43:20;12.27;;;11.17;;
45684;SDS011;46836;48.388;16.210;2023-09-12T13:45:47;12.17;;;10.53;;
45684;SDS011;46836;48.388;16.210;2023-09-12T13:48:14;14.20;;;10.40;;
45684;SDS011;46836;48.388;16.210;2023-09-12T13:50:41;11.10;;;10.20;;
45684;SDS011;46836;48.388;16.210;2023-09-12T13:53:11;10.80;;;9.90;;
45684;SDS011;46836;48.388;16.210;2023-09-12T13:55:39;16.30;;;9.60;;
45684;SDS011;46836;48.388;16.210;2023-09-12T13:58:26;11.30;;;10.20;;
45684;SDS011;46836;48.388;16.210;2023-09-12T14:03:58;10.83;;;9.83;;
45684;SDS011;46836;48.388;16.210;2023-09-12T14:06:25;10.70;;;9.80;;
45684;SDS011;46836;48.388;16.210;2023-09-12T14:08:54;12.40;;;11.20;;
45684;SDS011;46836;48.388;16.210;2023-09-12T14:11:21;13.67;;;9.63;;
45684;SDS011;46836;48.388;16.210;2023-09-12T14:13:59;11.13;;;9.97;;
45684;SDS011;46836;48.388;16.210;2023-09-12T14:16:41;10.43;;;9.27;;
45684;SDS011;46836;48.388;16.210;2023-09-12T14:19:13;10.23;;;9.23;;
45684;SDS011;46836;48.388;16.210;2023-09-12T14:21:42;9.90;;;9.00;;
45684;SDS011;46836;48.388;16.210;2023-09-12T14:24:11;10.30;;;8.40;;
45684;SDS011;46836;48.388;16.210;2023-09-12T14:26:39;7.93;;;7.20;;
45684;SDS011;46836;48.388;16.210;2023-09-12T14:29:07;8.10;;;7.13;;
45684;SDS011;46836;48.388;16.210;2023-09-12T14:31:35;9.70;;;7.80;;
45684;SDS011;46836;48.388;16.210;2023-09-12T14:34:04;8.43;;;7.40;;
45684;SDS011;46836;48.388;16.210;2023-09-12T14:36:34;9.60;;;8.80;;
45684;SDS011;46836;48.388;16.210;2023-09-12T14:39:02;10.77;;;9.77;;